sensor_id;sensor_type;location;lat;lon;timestamp;P1;durP1;ratioP1;P2;durP2;ratioP2
51194;SDS011;37259;49.972;19.850;2022-11-15T00:00:56;13.4;;;18.7;;
51194;SDS011;37259;49.972;19.850;2022-11-15T00:01:56;13.4;;;18.7;;
51194;SDS011;37259;49.972;19.850;2022-11-15T00:02:56;13.4;;;18.7;;
51194;SDS011;37259;49.972;19.850;2022-11-15T00:03:56;13.4;;;18.7;;
51194;SDS011;37259;49.972;19.850;2022-11-15T00:04:56;13.4;;;18.7;;
51194;SDS011;37259;49.972;19.850;2022-11-15T00:06:00;13.4;;;18.7;;
51194;SDS011;37259;49.972;19.850;2022-11-15T00:06:56;13.4;;;18.7;;
51194;SDS011;37259;49.972;19.850;2022-11-15T00:07:56;13.4;;;18.7;;
51194;SDS011;37259;49.972;19.850;2022-11-15T00:08:57;13.4;;;18.7;;
51194;SDS011;37259;49.972;19.850;2022-11-15T00:09:56;13.4;;;18.7;;
51194;SDS011;37259;49.972;19.850;2022-11-15T00:10:56;13.4;;;18.7;;
51194;SDS011;37259;49.972;19.850;2022-11-15T00:11:56;13.4;;;18.7;;
51194;SDS011;37259;49.972;19.850;2022-11-15T00:12:56;13.4;;;18.7;;
51194;SDS011;37259;49.972;19.850;2022-11-15T00:13:56;13.4;;;18.7;;
51194;SDS011;37259;49.972;19.850;2022-11-15T00:14:56;13.4;;;18.7;;
51194;SDS011;37259;49.972;19.850;2022-11-15T00:15:56;13.4;;;18.7;;
51194;SDS011;37259;49.972;19.850;2022-11-15T00:16:56;13.4;;;18.7;;
51194;SDS011;37259;49.972;19.850;2022-11-15T00:17:56;13.4;;;18.7;;
51194;SDS011;37259;49.972;19.850;2022-11-15T00:18:56;13.4;;;18.7;;
51194;SDS011;37259;49.972;19.850;2022-11-15T00:19:56;13.4;;;18.7;;
51194;SDS011;37259;49.972;19.850;2022-11-15T00:21:02;13.4;;;18.7;;
51194;SDS011;37259;49.972;19.850;2022-11-15T00:21:56;13.4;;;18.7;;
51194;SDS011;37259;49.972;19.850;2022-11-15T00:22:56;11.4;;;20.4;;
51194;SDS011;37259;49.972;19.850;2022-11-15T00:23:56;11.4;;;20.4;;
51194;SDS011;37259;49.972;19.850;2022-11-15T00:24:56;11.4;;;20.4;;
51194;SDS011;37259;49.972;19.850;2022-11-15T00:25:56;11.4;;;20.4;;
51194;SDS011;37259;49.972;19.850;2022-11-15T00:26:56;11.4;;;20.4;;
51194;SDS011;37259;49.972;19.850;2022-11-15T00:27:56;11.4;;;20.4;;
51194;SDS011;37259;49.972;19.850;2022-11-15T00:28:56;11.4;;;20.4;;
51194;SDS011;37259;49.972;19.850;2022-11-15T00:29:56;11.4;;;20.4;;
51194;SDS011;37259;49.972;19.850;2022-11-15T00:30:59;11.4;;;20.4;;
51194;SDS011;37259;49.972;19.850;2022-11-15T00:31:56;11.4;;;20.4;;
51194;SDS011;37259;49.972;19.850;2022-11-15T00:32:56;11.4;;;20.4;;
51194;SDS011;37259;49.972;19.850;2022-11-15T00:33:56;11.4;;;20.4;;
51194;SDS011;37259;49.972;19.850;2022-11-15T00:34:56;11.4;;;20.4;;
51194;SDS011;37259;49.972;19.850;2022-11-15T00:36:00;11.4;;;20.4;;
51194;SDS011;37259;49.972;19.850;2022-11-15T00:36:56;11.4;;;20.4;;
51194;SDS011;37259;49.972;19.850;2022-11-15T00:37:56;11.4;;;20.4;;
51194;SDS011;37259;49.972;19.850;2022-11-15T00:38:56;11.4;;;20.4;;
51194;SDS011;37259;49.972;19.850;2022-11-15T00:39:56;11.4;;;20.4;;
51194;SDS011;37259;49.972;19.850;2022-11-15T00:40:56;11.4;;;20.4;;
51194;SDS011;37259;49.972;19.850;2022-11-15T00:41:56;11.4;;;20.4;;
51194;SDS011;37259;49.972;19.850;2022-11-15T00:42:56;11.4;;;20.4;;
51194;SDS011;37259;49.972;19.850;2022-11-15T00:43:56;11.4;;;20.4;;
51194;SDS011;37259;49.972;19.850;2022-11-15T00:44:56;11.4;;;20.4;;
51194;SDS011;37259;49.972;19.850;2022-11-15T00:45:56;11.4;;;20.4;;
51194;SDS011;37259;49.972;19.850;2022-11-15T00:46:56;11.4;;;20.4;;
51194;SDS011;37259;49.972;19.850;2022-11-15T00:47:56;11.4;;;20.4;;
51194;SDS011;37259;49.972;19.850;2022-11-15T00:48:56;11.4;;;20.4;;
51194;SDS011;37259;49.972;19.850;2022-11-15T00:49:56;11.4;;;20.4;;
51194;SDS011;37259;49.972;19.850;2022-11-15T00:50:56;11.4;;;20.4;;
51194;SDS011;37259;49.972;19.850;2022-11-15T00:51:56;11.4;;;20.4;;
51194;SDS011;37259;49.972;19.850;2022-11-15T00:52:56;8.9;;;14.8;;
51194;SDS011;37259;49.972;19.850;2022-11-15T00:53:56;8.9;;;14.8;;
51194;SDS011;37259;49.972;19.850;2022-11-15T00:54:56;8.9;;;14.8;;
51194;SDS011;37259;49.972;19.850;2022-11-15T00:55:56;8.9;;;14.8;;
51194;SDS011;37259;49.972;19.850;2022-11-15T00:56:56;8.9;;;14.8;;
51194;SDS011;37259;49.972;19.850;2022-11-15T00:57:56;8.9;;;14.8;;
51194;SDS011;37259;49.972;19.850;2022-11-15T00:58:56;8.9;;;14.8;;
51194;SDS011;37259;49.972;19.850;2022-11-15T00:59:56;8.9;;;14.8;;
51194;SDS011;37259;49.972;19.850;2022-11-15T01:00:56;8.9;;;14.8;;
51194;SDS011;37259;49.972;19.850;2022-11-15T01:01:56;8.9;;;14.8;;
51194;SDS011;37259;49.972;19.850;2022-11-15T01:02:56;8.9;;;14.8;;
51194;SDS011;37259;49.972;19.850;2022-11-15T01:03:56;8.9;;;14.8;;
51194;SDS011;37259;49.972;19.850;2022-11-15T01:04:56;8.9;;;14.8;;
51194;SDS011;37259;49.972;19.850;2022-11-15T01:05:58;8.9;;;14.8;;
51194;SDS011;37259;49.972;19.850;2022-11-15T01:06:56;8.9;;;14.8;;
51194;SDS011;37259;49.972;19.850;2022-11-15T01:07:56;8.9;;;14.8;;
51194;SDS011;37259;49.972;19.850;2022-11-15T01:08:56;8.9;;;14.8;;
51194;SDS011;37259;49.972;19.850;2022-11-15T01:09:56;8.9;;;14.8;;
51194;SDS011;37259;49.972;19.850;2022-11-15T01:10:59;8.9;;;14.8;;
51194;SDS011;37259;49.972;19.850;2022-11-15T01:11:56;8.9;;;14.8;;
51194;SDS011;37259;49.972;19.850;2022-11-15T01:12:56;8.9;;;14.8;;
51194;SDS011;37259;49.972;19.850;2022-11-15T01:13:56;8.9;;;14.8;;
51194;SDS011;37259;49.972;19.850;2022-11-15T01:14:56;8.9;;;14.8;;
51194;SDS011;37259;49.972;19.850;2022-11-15T01:15:56;8.9;;;14.8;;
51194;SDS011;37259;49.972;19.850;2022-11-15T01:16:56;8.9;;;14.8;;
51194;SDS011;37259;49.972;19.850;2022-11-15T01:17:56;8.9;;;14.8;;
51194;SDS011;37259;49.972;19.850;2022-11-15T01:18:56;8.9;;;14.8;;
51194;SDS011;37259;49.972;19.850;2022-11-15T01:19:56;8.9;;;14.8;;
51194;SDS011;37259;49.972;19.850;2022-11-15T01:20:56;8.9;;;14.8;;
51194;SDS011;37259;49.972;19.850;2022-11-15T01:21:56;7.9;;;13.3;;
51194;SDS011;37259;49.972;19.850;2022-11-15T01:22:56;7.9;;;13.3;;
51194;SDS011;37259;49.972;19.850;2022-11-15T01:23:56;7.9;;;13.3;;
51194;SDS011;37259;49.972;19.850;2022-11-15T01:24:56;7.9;;;13.3;;
51194;SDS011;37259;49.972;19.850;2022-11-15T01:25:58;7.9;;;13.3;;
51194;SDS011;37259;49.972;19.850;2022-11-15T01:26:56;7.9;;;13.3;;
51194;SDS011;37259;49.972;19.850;2022-11-15T01:27:56;7.9;;;13.3;;
51194;SDS011;37259;49.972;19.850;2022-11-15T01:28:56;7.9;;;13.3;;
51194;SDS011;37259;49.972;19.850;2022-11-15T01:29:56;7.9;;;13.3;;
51194;SDS011;37259;49.972;19.850;2022-11-15T01:30:57;7.9;;;13.3;;
51194;SDS011;37259;49.972;19.850;2022-11-15T01:31:57;7.9;;;13.3;;
51194;SDS011;37259;49.972;19.850;2022-11-15T01:32:56;7.9;;;13.3;;
51194;SDS011;37259;49.972;19.850;2022-11-15T01:33:56;7.9;;;13.3;;
51194;SDS011;37259;49.972;19.850;2022-11-15T01:34:56;7.9;;;13.3;;
51194;SDS011;37259;49.972;19.850;2022-11-15T01:35:56;7.9;;;13.3;;
51194;SDS011;37259;49.972;19.850;2022-11-15T01:36:57;7.9;;;13.3;;
51194;SDS011;37259;49.972;19.850;2022-11-15T01:37:56;7.9;;;13.3;;
51194;SDS011;37259;49.972;19.850;2022-11-15T01:38:57;7.9;;;13.3;;
51194;SDS011;37259;49.972;19.850;2022-11-15T01:39:56;7.9;;;13.3;;
51194;SDS011;37259;49.972;19.850;2022-11-15T01:40:56;7.9;;;13.3;;
51194;SDS011;37259;49.972;19.850;2022-11-15T01:41:56;7.9;;;13.3;;
51194;SDS011;37259;49.972;19.850;2022-11-15T01:42:56;7.9;;;13.3;;
51194;SDS011;37259;49.972;19.850;2022-11-15T01:43:57;7.9;;;13.3;;
51194;SDS011;37259;49.972;19.850;2022-11-15T01:44:56;7.9;;;13.3;;
51194;SDS011;37259;49.972;19.850;2022-11-15T01:45:58;7.9;;;13.3;;
51194;SDS011;37259;49.972;19.850;2022-11-15T01:46:56;7.9;;;13.3;;
51194;SDS011;37259;49.972;19.850;2022-11-15T01:47:56;7.9;;;13.3;;
51194;SDS011;37259;49.972;19.850;2022-11-15T01:48:57;7.9;;;13.3;;
51194;SDS011;37259;49.972;19.850;2022-11-15T01:49:57;7.9;;;13.3;;
51194;SDS011;37259;49.972;19.850;2022-11-15T01:50:56;7.9;;;13.3;;
51194;SDS011;37259;49.972;19.850;2022-11-15T01:51:56;7.1;;;10.3;;
51194;SDS011;37259;49.972;19.850;2022-11-15T01:52:56;7.1;;;10.3;;
51194;SDS011;37259;49.972;19.850;2022-11-15T01:53:57;7.1;;;10.3;;
51194;SDS011;37259;49.972;19.850;2022-11-15T01:54:58;7.1;;;10.3;;
51194;SDS011;37259;49.972;19.850;2022-11-15T01:55:56;7.1;;;10.3;;
51194;SDS011;37259;49.972;19.850;2022-11-15T01:56:57;7.1;;;10.3;;
51194;SDS011;37259;49.972;19.850;2022-11-15T01:57:57;7.1;;;10.3;;
51194;SDS011;37259;49.972;19.850;2022-11-15T01:58:57;7.1;;;10.3;;
51194;SDS011;37259;49.972;19.850;2022-11-15T01:59:56;7.1;;;10.3;;
51194;SDS011;37259;49.972;19.850;2022-11-15T02:00:56;7.1;;;10.3;;
51194;SDS011;37259;49.972;19.850;2022-11-15T02:01:56;7.1;;;10.3;;
51194;SDS011;37259;49.972;19.850;2022-11-15T02:02:56;7.1;;;10.3;;
51194;SDS011;37259;49.972;19.850;2022-11-15T02:03:57;7.1;;;10.3;;
51194;SDS011;37259;49.972;19.850;2022-11-15T02:04:56;7.1;;;10.3;;
51194;SDS011;37259;49.972;19.850;2022-11-15T02:05:56;7.1;;;10.3;;
51194;SDS011;37259;49.972;19.850;2022-11-15T02:06:56;7.1;;;10.3;;
51194;SDS011;37259;49.972;19.850;2022-11-15T02:07:56;7.1;;;10.3;;
51194;SDS011;37259;49.972;19.850;2022-11-15T02:08:56;7.1;;;10.3;;
51194;SDS011;37259;49.972;19.850;2022-11-15T02:09:57;7.1;;;10.3;;
51194;SDS011;37259;49.972;19.850;2022-11-15T02:10:56;7.1;;;10.3;;
51194;SDS011;37259;49.972;19.850;2022-11-15T02:11:56;7.1;;;10.3;;
51194;SDS011;37259;49.972;19.850;2022-11-15T02:12:56;7.1;;;10.3;;
51194;SDS011;37259;49.972;19.850;2022-11-15T02:13:56;7.1;;;10.3;;
51194;SDS011;37259;49.972;19.850;2022-11-15T02:14:56;7.1;;;10.3;;
51194;SDS011;37259;49.972;19.850;2022-11-15T02:15:58;7.1;;;10.3;;
51194;SDS011;37259;49.972;19.850;2022-11-15T02:16:58;7.1;;;10.3;;
51194;SDS011;37259;49.972;19.850;2022-11-15T02:17:59;7.1;;;10.3;;
51194;SDS011;37259;49.972;19.850;2022-11-15T02:18:57;7.1;;;10.3;;
51194;SDS011;37259;49.972;19.850;2022-11-15T02:20:04;7.1;;;10.3;;
51194;SDS011;37259;49.972;19.850;2022-11-15T02:21:00;7.1;;;10.3;;
51194;SDS011;37259;49.972;19.850;2022-11-15T02:21:59;6.6;;;11;;
51194;SDS011;37259;49.972;19.850;2022-11-15T02:23:03;6.6;;;11;;
51194;SDS011;37259;49.972;19.850;2022-11-15T02:24:03;6.6;;;11;;
51194;SDS011;37259;49.972;19.850;2022-11-15T02:25:01;6.6;;;11;;
51194;SDS011;37259;49.972;19.850;2022-11-15T02:25:57;6.6;;;11;;
51194;SDS011;37259;49.972;19.850;2022-11-15T02:27:03;6.6;;;11;;
51194;SDS011;37259;49.972;19.850;2022-11-15T02:28:58;6.6;;;11;;
51194;SDS011;37259;49.972;19.850;2022-11-15T02:29:03;6.6;;;11;;
51194;SDS011;37259;49.972;19.850;2022-11-15T02:30:00;6.6;;;11;;
51194;SDS011;37259;49.972;19.850;2022-11-15T02:30:58;6.6;;;11;;
51194;SDS011;37259;49.972;19.850;2022-11-15T02:31:57;6.6;;;11;;
51194;SDS011;37259;49.972;19.850;2022-11-15T02:32:57;6.6;;;11;;
51194;SDS011;37259;49.972;19.850;2022-11-15T02:33:59;6.6;;;11;;
51194;SDS011;37259;49.972;19.850;2022-11-15T02:34:58;6.6;;;11;;
51194;SDS011;37259;49.972;19.850;2022-11-15T02:35:57;6.6;;;11;;
51194;SDS011;37259;49.972;19.850;2022-11-15T02:37:00;6.6;;;11;;
51194;SDS011;37259;49.972;19.850;2022-11-15T02:37:57;6.6;;;11;;
51194;SDS011;37259;49.972;19.850;2022-11-15T02:38:58;6.6;;;11;;
51194;SDS011;37259;49.972;19.850;2022-11-15T02:39:57;6.6;;;11;;
51194;SDS011;37259;49.972;19.850;2022-11-15T02:40:57;6.6;;;11;;
51194;SDS011;37259;49.972;19.850;2022-11-15T02:41:57;6.6;;;11;;
51194;SDS011;37259;49.972;19.850;2022-11-15T02:42:57;6.6;;;11;;
51194;SDS011;37259;49.972;19.850;2022-11-15T02:43:58;6.6;;;11;;
51194;SDS011;37259;49.972;19.850;2022-11-15T02:44:56;6.6;;;11;;
51194;SDS011;37259;49.972;19.850;2022-11-15T02:45:58;6.6;;;11;;
51194;SDS011;37259;49.972;19.850;2022-11-15T02:46:57;6.6;;;11;;
51194;SDS011;37259;49.972;19.850;2022-11-15T02:47:56;6.6;;;11;;
51194;SDS011;37259;49.972;19.850;2022-11-15T02:48:56;6.6;;;11;;
51194;SDS011;37259;49.972;19.850;2022-11-15T02:49:57;6.6;;;11;;
51194;SDS011;37259;49.972;19.850;2022-11-15T02:50:57;6.6;;;11;;
51194;SDS011;37259;49.972;19.850;2022-11-15T02:51:56;5.7;;;9.5;;
51194;SDS011;37259;49.972;19.850;2022-11-15T02:52:56;5.7;;;9.5;;
51194;SDS011;37259;49.972;19.850;2022-11-15T02:53:56;5.7;;;9.5;;
51194;SDS011;37259;49.972;19.850;2022-11-15T02:54:57;5.7;;;9.5;;
51194;SDS011;37259;49.972;19.850;2022-11-15T02:55:56;5.7;;;9.5;;
51194;SDS011;37259;49.972;19.850;2022-11-15T02:56:58;5.7;;;9.5;;
51194;SDS011;37259;49.972;19.850;2022-11-15T02:58:00;5.7;;;9.5;;
51194;SDS011;37259;49.972;19.850;2022-11-15T02:59:00;5.7;;;9.5;;
51194;SDS011;37259;49.972;19.850;2022-11-15T03:00:00;5.7;;;9.5;;
51194;SDS011;37259;49.972;19.850;2022-11-15T03:00:58;5.7;;;9.5;;
51194;SDS011;37259;49.972;19.850;2022-11-15T03:02:02;5.7;;;9.5;;
51194;SDS011;37259;49.972;19.850;2022-11-15T03:02:58;5.7;;;9.5;;
51194;SDS011;37259;49.972;19.850;2022-11-15T03:03:59;5.7;;;9.5;;
51194;SDS011;37259;49.972;19.850;2022-11-15T03:04:57;5.7;;;9.5;;
51194;SDS011;37259;49.972;19.850;2022-11-15T03:05:57;5.7;;;9.5;;
51194;SDS011;37259;49.972;19.850;2022-11-15T03:06:57;5.7;;;9.5;;
51194;SDS011;37259;49.972;19.850;2022-11-15T03:07:58;5.7;;;9.5;;
51194;SDS011;37259;49.972;19.850;2022-11-15T03:08:59;5.7;;;9.5;;
51194;SDS011;37259;49.972;19.850;2022-11-15T03:09:57;5.7;;;9.5;;
51194;SDS011;37259;49.972;19.850;2022-11-15T03:10:59;5.7;;;9.5;;
51194;SDS011;37259;49.972;19.850;2022-11-15T03:11:57;5.7;;;9.5;;
51194;SDS011;37259;49.972;19.850;2022-11-15T03:12:57;5.7;;;9.5;;
51194;SDS011;37259;49.972;19.850;2022-11-15T03:13:57;5.7;;;9.5;;
51194;SDS011;37259;49.972;19.850;2022-11-15T03:14:57;5.7;;;9.5;;
51194;SDS011;37259;49.972;19.850;2022-11-15T03:15:57;5.7;;;9.5;;
51194;SDS011;37259;49.972;19.850;2022-11-15T03:16:58;5.7;;;9.5;;
51194;SDS011;37259;49.972;19.850;2022-11-15T03:17:58;5.7;;;9.5;;
51194;SDS011;37259;49.972;19.850;2022-11-15T03:18:58;5.7;;;9.5;;
51194;SDS011;37259;49.972;19.850;2022-11-15T03:19:57;5.7;;;9.5;;
51194;SDS011;37259;49.972;19.850;2022-11-15T03:20:57;5.7;;;9.5;;
51194;SDS011;37259;49.972;19.850;2022-11-15T03:21:57;6.2;;;11.4;;
51194;SDS011;37259;49.972;19.850;2022-11-15T03:22:58;6.2;;;11.4;;
51194;SDS011;37259;49.972;19.850;2022-11-15T03:23:56;6.2;;;11.4;;
51194;SDS011;37259;49.972;19.850;2022-11-15T03:24:57;6.2;;;11.4;;
51194;SDS011;37259;49.972;19.850;2022-11-15T03:25:56;6.2;;;11.4;;
51194;SDS011;37259;49.972;19.850;2022-11-15T03:26:56;6.2;;;11.4;;
51194;SDS011;37259;49.972;19.850;2022-11-15T03:27:57;6.2;;;11.4;;
51194;SDS011;37259;49.972;19.850;2022-11-15T03:28:57;6.2;;;11.4;;
51194;SDS011;37259;49.972;19.850;2022-11-15T03:29:57;6.2;;;11.4;;
51194;SDS011;37259;49.972;19.850;2022-11-15T03:30:56;6.2;;;11.4;;
51194;SDS011;37259;49.972;19.850;2022-11-15T03:31:57;6.2;;;11.4;;
51194;SDS011;37259;49.972;19.850;2022-11-15T03:32:56;6.2;;;11.4;;
51194;SDS011;37259;49.972;19.850;2022-11-15T03:33:57;6.2;;;11.4;;
51194;SDS011;37259;49.972;19.850;2022-11-15T03:34:57;6.2;;;11.4;;
51194;SDS011;37259;49.972;19.850;2022-11-15T03:35:56;6.2;;;11.4;;
51194;SDS011;37259;49.972;19.850;2022-11-15T03:36:56;6.2;;;11.4;;
51194;SDS011;37259;49.972;19.850;2022-11-15T03:37:57;6.2;;;11.4;;
51194;SDS011;37259;49.972;19.850;2022-11-15T03:38:56;6.2;;;11.4;;
51194;SDS011;37259;49.972;19.850;2022-11-15T03:39:56;6.2;;;11.4;;
51194;SDS011;37259;49.972;19.850;2022-11-15T03:40:58;6.2;;;11.4;;
51194;SDS011;37259;49.972;19.850;2022-11-15T03:41:57;6.2;;;11.4;;
51194;SDS011;37259;49.972;19.850;2022-11-15T03:42:58;6.2;;;11.4;;
51194;SDS011;37259;49.972;19.850;2022-11-15T03:43:57;6.2;;;11.4;;
51194;SDS011;37259;49.972;19.850;2022-11-15T03:44:58;6.2;;;11.4;;
51194;SDS011;37259;49.972;19.850;2022-11-15T03:45:58;6.2;;;11.4;;
51194;SDS011;37259;49.972;19.850;2022-11-15T03:46:57;6.2;;;11.4;;
51194;SDS011;37259;49.972;19.850;2022-11-15T03:47:58;6.2;;;11.4;;
51194;SDS011;37259;49.972;19.850;2022-11-15T03:49:02;6.2;;;11.4;;
51194;SDS011;37259;49.972;19.850;2022-11-15T03:49:58;6.2;;;11.4;;
51194;SDS011;37259;49.972;19.850;2022-11-15T03:50:56;6.2;;;11.4;;
51194;SDS011;37259;49.972;19.850;2022-11-15T03:51:57;5.6;;;9.3;;
51194;SDS011;37259;49.972;19.850;2022-11-15T03:52:56;5.6;;;9.3;;
51194;SDS011;37259;49.972;19.850;2022-11-15T03:53:56;5.6;;;9.3;;
51194;SDS011;37259;49.972;19.850;2022-11-15T03:54:56;5.6;;;9.3;;
51194;SDS011;37259;49.972;19.850;2022-11-15T03:55:56;5.6;;;9.3;;
51194;SDS011;37259;49.972;19.850;2022-11-15T03:56:56;5.6;;;9.3;;
51194;SDS011;37259;49.972;19.850;2022-11-15T03:57:57;5.6;;;9.3;;
51194;SDS011;37259;49.972;19.850;2022-11-15T03:58:56;5.6;;;9.3;;
51194;SDS011;37259;49.972;19.850;2022-11-15T03:59:56;5.6;;;9.3;;
51194;SDS011;37259;49.972;19.850;2022-11-15T04:00:56;5.6;;;9.3;;
51194;SDS011;37259;49.972;19.850;2022-11-15T04:01:56;5.6;;;9.3;;
51194;SDS011;37259;49.972;19.850;2022-11-15T04:02:56;5.6;;;9.3;;
51194;SDS011;37259;49.972;19.850;2022-11-15T04:03:56;5.6;;;9.3;;
51194;SDS011;37259;49.972;19.850;2022-11-15T04:04:56;5.6;;;9.3;;
51194;SDS011;37259;49.972;19.850;2022-11-15T04:05:56;5.6;;;9.3;;
51194;SDS011;37259;49.972;19.850;2022-11-15T04:06:56;5.6;;;9.3;;
51194;SDS011;37259;49.972;19.850;2022-11-15T04:07:56;5.6;;;9.3;;
51194;SDS011;37259;49.972;19.850;2022-11-15T04:08:56;5.6;;;9.3;;
51194;SDS011;37259;49.972;19.850;2022-11-15T04:09:56;5.6;;;9.3;;
51194;SDS011;37259;49.972;19.850;2022-11-15T04:10:56;5.6;;;9.3;;
51194;SDS011;37259;49.972;19.850;2022-11-15T04:11:56;5.6;;;9.3;;
51194;SDS011;37259;49.972;19.850;2022-11-15T04:12:56;5.6;;;9.3;;
51194;SDS011;37259;49.972;19.850;2022-11-15T04:13:56;5.6;;;9.3;;
51194;SDS011;37259;49.972;19.850;2022-11-15T04:14:57;5.6;;;9.3;;
51194;SDS011;37259;49.972;19.850;2022-11-15T04:15:56;5.6;;;9.3;;
51194;SDS011;37259;49.972;19.850;2022-11-15T04:16:56;5.6;;;9.3;;
51194;SDS011;37259;49.972;19.850;2022-11-15T04:17:56;5.6;;;9.3;;
51194;SDS011;37259;49.972;19.850;2022-11-15T04:18:56;5.6;;;9.3;;
51194;SDS011;37259;49.972;19.850;2022-11-15T04:19:56;5.6;;;9.3;;
51194;SDS011;37259;49.972;19.850;2022-11-15T04:20:56;5.6;;;9.3;;
51194;SDS011;37259;49.972;19.850;2022-11-15T04:21:56;5.6;;;9.3;;
51194;SDS011;37259;49.972;19.850;2022-11-15T04:22:57;5.6;;;9.3;;
51194;SDS011;37259;49.972;19.850;2022-11-15T04:23:56;5.6;;;9.3;;
51194;SDS011;37259;49.972;19.850;2022-11-15T04:24:56;5.6;;;9.3;;
51194;SDS011;37259;49.972;19.850;2022-11-15T04:25:58;5.6;;;9.3;;
51194;SDS011;37259;49.972;19.850;2022-11-15T04:26:56;5.6;;;9.3;;
51194;SDS011;37259;49.972;19.850;2022-11-15T04:27:56;5.6;;;9.3;;
51194;SDS011;37259;49.972;19.850;2022-11-15T04:28:56;5.6;;;9.3;;
51194;SDS011;37259;49.972;19.850;2022-11-15T04:29:56;5.6;;;9.3;;
51194;SDS011;37259;49.972;19.850;2022-11-15T04:30:56;5.6;;;9.3;;
51194;SDS011;37259;49.972;19.850;2022-11-15T04:31:56;5.6;;;9.3;;
51194;SDS011;37259;49.972;19.850;2022-11-15T04:32:56;5.6;;;9.3;;
51194;SDS011;37259;49.972;19.850;2022-11-15T04:33:56;5.6;;;9.3;;
51194;SDS011;37259;49.972;19.850;2022-11-15T04:34:56;5.6;;;9.3;;
51194;SDS011;37259;49.972;19.850;2022-11-15T04:35:56;5.6;;;9.3;;
51194;SDS011;37259;49.972;19.850;2022-11-15T04:36:56;5.6;;;9.3;;
51194;SDS011;37259;49.972;19.850;2022-11-15T04:37:56;5.6;;;9.3;;
51194;SDS011;37259;49.972;19.850;2022-11-15T04:38:56;5.6;;;9.3;;
51194;SDS011;37259;49.972;19.850;2022-11-15T04:39:56;5.6;;;9.3;;
51194;SDS011;37259;49.972;19.850;2022-11-15T04:40:56;5.6;;;9.3;;
51194;SDS011;37259;49.972;19.850;2022-11-15T04:41:56;5.6;;;9.3;;
51194;SDS011;37259;49.972;19.850;2022-11-15T04:42:56;5.6;;;9.3;;
51194;SDS011;37259;49.972;19.850;2022-11-15T04:43:57;5.6;;;9.3;;
51194;SDS011;37259;49.972;19.850;2022-11-15T04:44:56;5.6;;;9.3;;
51194;SDS011;37259;49.972;19.850;2022-11-15T04:45:56;5.6;;;9.3;;
51194;SDS011;37259;49.972;19.850;2022-11-15T04:46:56;5.6;;;9.3;;
51194;SDS011;37259;49.972;19.850;2022-11-15T04:47:56;5.6;;;9.3;;
51194;SDS011;37259;49.972;19.850;2022-11-15T04:48:56;5.6;;;9.3;;
51194;SDS011;37259;49.972;19.850;2022-11-15T04:49:56;5.6;;;9.3;;
51194;SDS011;37259;49.972;19.850;2022-11-15T04:50:56;5.6;;;9.3;;
51194;SDS011;37259;49.972;19.850;2022-11-15T04:51:56;4.3;;;8.2;;
51194;SDS011;37259;49.972;19.850;2022-11-15T04:52:56;4.3;;;8.2;;
51194;SDS011;37259;49.972;19.850;2022-11-15T04:53:56;4.3;;;8.2;;
51194;SDS011;37259;49.972;19.850;2022-11-15T04:54:56;4.3;;;8.2;;
51194;SDS011;37259;49.972;19.850;2022-11-15T04:55:56;4.3;;;8.2;;
51194;SDS011;37259;49.972;19.850;2022-11-15T04:56:56;4.3;;;8.2;;
51194;SDS011;37259;49.972;19.850;2022-11-15T04:57:57;4.3;;;8.2;;
51194;SDS011;37259;49.972;19.850;2022-11-15T04:58:56;4.3;;;8.2;;
51194;SDS011;37259;49.972;19.850;2022-11-15T04:59:56;4.3;;;8.2;;
51194;SDS011;37259;49.972;19.850;2022-11-15T05:00:56;4.3;;;8.2;;
51194;SDS011;37259;49.972;19.850;2022-11-15T05:01:56;4.3;;;8.2;;
51194;SDS011;37259;49.972;19.850;2022-11-15T05:02:56;4.3;;;8.2;;
51194;SDS011;37259;49.972;19.850;2022-11-15T05:03:56;4.3;;;8.2;;
51194;SDS011;37259;49.972;19.850;2022-11-15T05:04:56;4.3;;;8.2;;
51194;SDS011;37259;49.972;19.850;2022-11-15T05:05:56;4.3;;;8.2;;
51194;SDS011;37259;49.972;19.850;2022-11-15T05:06:56;4.3;;;8.2;;
51194;SDS011;37259;49.972;19.850;2022-11-15T05:07:56;4.3;;;8.2;;
51194;SDS011;37259;49.972;19.850;2022-11-15T05:08:56;4.3;;;8.2;;
51194;SDS011;37259;49.972;19.850;2022-11-15T05:09:56;4.3;;;8.2;;
51194;SDS011;37259;49.972;19.850;2022-11-15T05:10:56;4.3;;;8.2;;
51194;SDS011;37259;49.972;19.850;2022-11-15T05:11:56;4.3;;;8.2;;
51194;SDS011;37259;49.972;19.850;2022-11-15T05:12:56;4.3;;;8.2;;
51194;SDS011;37259;49.972;19.850;2022-11-15T05:13:56;4.3;;;8.2;;
51194;SDS011;37259;49.972;19.850;2022-11-15T05:14:56;4.3;;;8.2;;
51194;SDS011;37259;49.972;19.850;2022-11-15T05:15:56;4.3;;;8.2;;
51194;SDS011;37259;49.972;19.850;2022-11-15T05:16:56;4.3;;;8.2;;
51194;SDS011;37259;49.972;19.850;2022-11-15T05:17:57;4.3;;;8.2;;
51194;SDS011;37259;49.972;19.850;2022-11-15T05:18:56;4.3;;;8.2;;
51194;SDS011;37259;49.972;19.850;2022-11-15T05:19:56;4.3;;;8.2;;
51194;SDS011;37259;49.972;19.850;2022-11-15T05:21:02;4.3;;;8.2;;
51194;SDS011;37259;49.972;19.850;2022-11-15T05:21:56;4.5;;;8.3;;
51194;SDS011;37259;49.972;19.850;2022-11-15T05:22:56;4.5;;;8.3;;
51194;SDS011;37259;49.972;19.850;2022-11-15T05:23:56;4.5;;;8.3;;
51194;SDS011;37259;49.972;19.850;2022-11-15T05:24:56;4.5;;;8.3;;
51194;SDS011;37259;49.972;19.850;2022-11-15T05:25:58;4.5;;;8.3;;
51194;SDS011;37259;49.972;19.850;2022-11-15T05:26:56;4.5;;;8.3;;
51194;SDS011;37259;49.972;19.850;2022-11-15T05:27:56;4.5;;;8.3;;
51194;SDS011;37259;49.972;19.850;2022-11-15T05:28:57;4.5;;;8.3;;
51194;SDS011;37259;49.972;19.850;2022-11-15T05:29:56;4.5;;;8.3;;
51194;SDS011;37259;49.972;19.850;2022-11-15T05:31:00;4.5;;;8.3;;
51194;SDS011;37259;49.972;19.850;2022-11-15T05:31:56;4.5;;;8.3;;
51194;SDS011;37259;49.972;19.850;2022-11-15T05:32:56;4.5;;;8.3;;
51194;SDS011;37259;49.972;19.850;2022-11-15T05:33:56;4.5;;;8.3;;
51194;SDS011;37259;49.972;19.850;2022-11-15T05:34:56;4.5;;;8.3;;
51194;SDS011;37259;49.972;19.850;2022-11-15T05:35:57;4.5;;;8.3;;
51194;SDS011;37259;49.972;19.850;2022-11-15T05:36:56;4.5;;;8.3;;
51194;SDS011;37259;49.972;19.850;2022-11-15T05:37:56;4.5;;;8.3;;
51194;SDS011;37259;49.972;19.850;2022-11-15T05:38:56;4.5;;;8.3;;
51194;SDS011;37259;49.972;19.850;2022-11-15T05:39:56;4.5;;;8.3;;
51194;SDS011;37259;49.972;19.850;2022-11-15T05:40:56;4.5;;;8.3;;
51194;SDS011;37259;49.972;19.850;2022-11-15T05:41:57;4.5;;;8.3;;
51194;SDS011;37259;49.972;19.850;2022-11-15T05:42:56;4.5;;;8.3;;
51194;SDS011;37259;49.972;19.850;2022-11-15T05:43:56;4.5;;;8.3;;
51194;SDS011;37259;49.972;19.850;2022-11-15T05:44:56;4.5;;;8.3;;
51194;SDS011;37259;49.972;19.850;2022-11-15T05:45:56;4.5;;;8.3;;
51194;SDS011;37259;49.972;19.850;2022-11-15T05:46:56;4.5;;;8.3;;
51194;SDS011;37259;49.972;19.850;2022-11-15T05:47:56;4.5;;;8.3;;
51194;SDS011;37259;49.972;19.850;2022-11-15T05:48:56;4.5;;;8.3;;
51194;SDS011;37259;49.972;19.850;2022-11-15T05:49:56;4.5;;;8.3;;
51194;SDS011;37259;49.972;19.850;2022-11-15T05:50:56;4.5;;;8.3;;
51194;SDS011;37259;49.972;19.850;2022-11-15T05:51:56;4.4;;;8;;
51194;SDS011;37259;49.972;19.850;2022-11-15T05:52:56;4.4;;;8;;
51194;SDS011;37259;49.972;19.850;2022-11-15T05:53:56;4.4;;;8;;
51194;SDS011;37259;49.972;19.850;2022-11-15T05:54:56;4.4;;;8;;
51194;SDS011;37259;49.972;19.850;2022-11-15T05:55:56;4.4;;;8;;
51194;SDS011;37259;49.972;19.850;2022-11-15T05:56:56;4.4;;;8;;
51194;SDS011;37259;49.972;19.850;2022-11-15T05:57:56;4.4;;;8;;
51194;SDS011;37259;49.972;19.850;2022-11-15T05:58:56;4.4;;;8;;
51194;SDS011;37259;49.972;19.850;2022-11-15T05:59:56;4.4;;;8;;
51194;SDS011;37259;49.972;19.850;2022-11-15T06:00:56;4.4;;;8;;
51194;SDS011;37259;49.972;19.850;2022-11-15T06:01:56;4.4;;;8;;
51194;SDS011;37259;49.972;19.850;2022-11-15T06:02:56;4.4;;;8;;
51194;SDS011;37259;49.972;19.850;2022-11-15T06:03:56;4.4;;;8;;
51194;SDS011;37259;49.972;19.850;2022-11-15T06:04:56;4.4;;;8;;